sensor_id;sensor_type;location;lat;lon;timestamp;pressure;altitude;pressure_sealevel;temperature;humidity
39435;BME280;66825;51.880;-0.518;2024-02-14T00:02:13;100016.31;;;16.28;45.80
39435;BME280;66825;51.880;-0.518;2024-02-14T00:04:38;100019.03;;;16.28;45.67
39435;BME280;66825;51.880;-0.518;2024-02-14T00:07:04;100023.69;;;16.27;45.93
39435;BME280;66825;51.880;-0.518;2024-02-14T00:09:29;100020.13;;;16.27;45.65
39435;BME280;66825;51.880;-0.518;2024-02-14T00:11:55;100032.16;;;16.26;45.69
39435;BME280;66825;51.880;-0.518;2024-02-14T00:14:20;100022.38;;;16.25;45.57
39435;BME280;66825;51.880;-0.518;2024-02-14T00:16:46;100030.53;;;16.25;46.03
39435;BME280;66825;51.880;-0.518;2024-02-14T00:19:11;100031.63;;;16.24;45.67
39435;BME280;66825;51.880;-0.518;2024-02-14T00:21:37;100031.63;;;16.24;45.86
39435;BME280;66825;51.880;-0.518;2024-02-14T00:24:03;100028.09;;;16.23;45.94
39435;BME280;66825;51.880;-0.518;2024-02-14T00:26:30;100035.44;;;16.23;45.68
39435;BME280;66825;51.880;-0.518;2024-02-14T00:28:55;100040.09;;;16.22;45.95
39435;BME280;66825;51.880;-0.518;2024-02-14T00:31:20;100032.22;;;16.20;45.92
39435;BME280;66825;51.880;-0.518;2024-02-14T00:33:46;100038.75;;;16.19;45.81
39435;BME280;66825;51.880;-0.518;2024-02-14T00:36:11;99940.97;;;15.59;45.68
39435;BME280;66825;51.880;-0.518;2024-02-14T00:38:36;100039.06;;;16.18;45.60
39435;BME280;66825;51.880;-0.518;2024-02-14T00:41:02;100035.56;;;16.17;45.83
39435;BME280;66825;51.880;-0.518;2024-02-14T00:43:27;100042.09;;;16.16;46.01
39435;BME280;66825;51.880;-0.518;2024-02-14T00:45:53;100044.00;;;16.16;46.11
39435;BME280;66825;51.880;-0.518;2024-02-14T00:48:18;100045.13;;;16.15;46.05
39435;BME280;66825;51.880;-0.518;2024-02-14T00:50:44;100038.88;;;16.14;46.15
39435;BME280;66825;51.880;-0.518;2024-02-14T00:53:10;100038.88;;;16.14;45.94
39435;BME280;66825;51.880;-0.518;2024-02-14T00:55:35;100038.06;;;16.14;46.03
39435;BME280;66825;51.880;-0.518;2024-02-14T00:58:00;100046.50;;;16.12;46.08
39435;BME280;66825;51.880;-0.518;2024-02-14T01:00:26;100052.75;;;16.13;45.78
39435;BME280;66825;51.880;-0.518;2024-02-14T01:02:51;100047.63;;;16.11;45.87
39435;BME280;66825;51.880;-0.518;2024-02-14T01:05:16;100039.47;;;16.11;45.82
39435;BME280;66825;51.880;-0.518;2024-02-14T01:07:42;100047.63;;;16.11;46.11
39435;BME280;66825;51.880;-0.518;2024-02-14T01:10:07;100044.09;;;16.11;45.97
39435;BME280;66825;51.880;-0.518;2024-02-14T01:12:33;100053.34;;;16.10;46.08
39435;BME280;66825;51.880;-0.518;2024-02-14T01:14:58;100048.72;;;16.10;45.75
39435;BME280;66825;51.880;-0.518;2024-02-14T01:17:23;100061.00;;;16.08;45.90
39435;BME280;66825;51.880;-0.518;2024-02-14T01:19:50;100056.38;;;16.08;45.89
39435;BME280;66825;51.880;-0.518;2024-02-14T01:22:15;100045.50;;;16.08;46.13
39435;BME280;66825;51.880;-0.518;2024-02-14T01:24:44;100049.31;;;16.07;46.24
39435;BME280;66825;51.880;-0.518;2024-02-14T01:27:10;100057.47;;;16.07;45.90
39435;BME280;66825;51.880;-0.518;2024-02-14T01:29:35;100055.06;;;16.06;46.00
39435;BME280;66825;51.880;-0.518;2024-02-14T01:32:00;100057.78;;;16.06;45.86
39435;BME280;66825;51.880;-0.518;2024-02-14T01:34:26;100051.53;;;16.05;46.04
39435;BME280;66825;51.880;-0.518;2024-02-14T01:36:52;100058.09;;;16.04;46.10
39435;BME280;66825;51.880;-0.518;2024-02-14T01:39:18;99937.97;;;15.27;45.86
39435;BME280;66825;51.880;-0.518;2024-02-14T01:41:44;100024.78;;;15.79;46.08
39435;BME280;66825;51.880;-0.518;2024-02-14T01:44:11;100058.38;;;16.02;45.97
39435;BME280;66825;51.880;-0.518;2024-02-14T01:46:36;99970.34;;;15.37;45.96
39435;BME280;66825;51.880;-0.518;2024-02-14T01:49:01;100064.91;;;16.01;46.13
39435;BME280;66825;51.880;-0.518;2024-02-14T01:51:28;100072.25;;;16.01;45.86
39435;BME280;66825;51.880;-0.518;2024-02-14T01:53:54;100062.50;;;16.00;46.00
39435;BME280;66825;51.880;-0.518;2024-02-14T01:56:20;100057.88;;;16.00;46.03
39435;BME280;66825;51.880;-0.518;2024-02-14T01:58:45;100059.78;;;16.00;45.82
39435;BME280;66825;51.880;-0.518;2024-02-14T02:01:11;100058.97;;;15.99;45.91
39435;BME280;66825;51.880;-0.518;2024-02-14T02:03:37;100058.97;;;15.99;46.13
39435;BME280;66825;51.880;-0.518;2024-02-14T02:06:03;100058.47;;;15.97;46.00
39435;BME280;66825;51.880;-0.518;2024-02-14T02:08:30;100056.53;;;15.98;46.11
39435;BME280;66825;51.880;-0.518;2024-02-14T02:10:57;100058.47;;;15.97;45.93
39435;BME280;66825;51.880;-0.518;2024-02-14T02:13:23;100056.84;;;15.96;45.90
39435;BME280;66825;51.880;-0.518;2024-02-14T02:15:48;100057.94;;;15.95;46.14
39435;BME280;66825;51.880;-0.518;2024-02-14T02:18:13;100063.38;;;15.95;46.21
39435;BME280;66825;51.880;-0.518;2024-02-14T02:20:40;99929.47;;;15.15;45.91
39435;BME280;66825;51.880;-0.518;2024-02-14T02:23:09;100066.41;;;15.94;45.88
39435;BME280;66825;51.880;-0.518;2024-02-14T02:25:34;100062.91;;;15.93;45.89
39435;BME280;66825;51.880;-0.518;2024-02-14T02:28:00;100070.22;;;15.93;46.00
39435;BME280;66825;51.880;-0.518;2024-02-14T02:30:25;100078.38;;;15.93;45.78
39435;BME280;66825;51.880;-0.518;2024-02-14T02:32:50;100082.19;;;15.92;46.17
39435;BME280;66825;51.880;-0.518;2024-02-14T02:35:16;100072.16;;;15.92;46.24
39435;BME280;66825;51.880;-0.518;2024-02-14T02:37:42;100078.69;;;15.91;45.90
39435;BME280;66825;51.880;-0.518;2024-02-14T02:40:10;100075.13;;;15.91;46.19
39435;BME280;66825;51.880;-0.518;2024-02-14T02:42:35;100072.41;;;15.91;46.12
39435;BME280;66825;51.880;-0.518;2024-02-14T02:45:01;100090.66;;;15.90;46.31
39435;BME280;66825;51.880;-0.518;2024-02-14T02:47:31;100070.84;;;15.90;46.18
39435;BME280;66825;51.880;-0.518;2024-02-14T02:49:57;100077.38;;;15.88;46.17
39435;BME280;66825;51.880;-0.518;2024-02-14T02:52:26;100069.78;;;15.85;45.92
39435;BME280;66825;51.880;-0.518;2024-02-14T02:54:53;100071.09;;;15.88;46.05
39435;BME280;66825;51.880;-0.518;2024-02-14T02:57:18;99972.81;;;15.20;46.19
39435;BME280;66825;51.880;-0.518;2024-02-14T02:59:44;100071.09;;;15.88;46.07
39435;BME280;66825;51.880;-0.518;2024-02-14T03:02:11;100063.25;;;15.86;46.32
39435;BME280;66825;51.880;-0.518;2024-02-14T03:04:37;100062.47;;;15.86;46.08
39435;BME280;66825;51.880;-0.518;2024-02-14T03:07:03;100057.03;;;15.86;46.25
39435;BME280;66825;51.880;-0.518;2024-02-14T03:09:32;100052.72;;;15.85;46.03
39435;BME280;66825;51.880;-0.518;2024-02-14T03:11:57;100049.16;;;15.84;46.22
39435;BME280;66825;51.880;-0.518;2024-02-14T03:14:23;100060.03;;;15.84;46.14
39435;BME280;66825;51.880;-0.518;2024-02-14T03:16:48;100051.34;;;15.82;45.98
39435;BME280;66825;51.880;-0.518;2024-02-14T03:19:13;99936.38;;;15.07;46.24
39435;BME280;66825;51.880;-0.518;2024-02-14T03:21:39;100050.25;;;15.83;46.20
39435;BME280;66825;51.880;-0.518;2024-02-14T03:24:04;100049.47;;;15.83;46.00
39435;BME280;66825;51.880;-0.518;2024-02-14T03:26:30;100050.53;;;15.82;46.10
39435;BME280;66825;51.880;-0.518;2024-02-14T03:28:59;100055.97;;;15.82;46.17
39435;BME280;66825;51.880;-0.518;2024-02-14T03:31:24;100057.91;;;15.81;46.24
39435;BME280;66825;51.880;-0.518;2024-02-14T03:33:51;100054.34;;;15.81;46.34
39435;BME280;66825;51.880;-0.518;2024-02-14T03:36:16;100058.19;;;15.80;46.40
39435;BME280;66825;51.880;-0.518;2024-02-14T03:38:42;100052.47;;;15.81;46.10
39435;BME280;66825;51.880;-0.518;2024-02-14T03:41:07;100045.41;;;15.80;46.36
39435;BME280;66825;51.880;-0.518;2024-02-14T03:43:32;100055.47;;;15.80;46.21
39435;BME280;66825;51.880;-0.518;2024-02-14T03:45:58;100046.50;;;15.79;46.22
39435;BME280;66825;51.880;-0.518;2024-02-14T03:48:23;100039.47;;;15.78;46.33
39435;BME280;66825;51.880;-0.518;2024-02-14T03:50:49;100034.81;;;15.79;46.28
39435;BME280;66825;51.880;-0.518;2024-02-14T03:53:14;100041.38;;;15.78;46.02
39435;BME280;66825;51.880;-0.518;2024-02-14T03:55:40;100044.09;;;15.78;46.18
39435;BME280;66825;51.880;-0.518;2024-02-14T03:58:05;100039.78;;;15.77;46.13
39435;BME280;66825;51.880;-0.518;2024-02-14T04:00:33;100043.28;;;15.77;46.17
39435;BME280;66825;51.880;-0.518;2024-02-14T04:03:00;100051.44;;;15.77;46.22
39435;BME280;66825;51.880;-0.518;2024-02-14T04:05:27;100045.47;;;15.75;46.19
39435;BME280;66825;51.880;-0.518;2024-02-14T04:07:53;100049.03;;;15.76;46.03
39435;BME280;66825;51.880;-0.518;2024-02-14T04:10:19;100043.59;;;15.76;46.11
39435;BME280;66825;51.880;-0.518;2024-02-14T04:12:45;100050.13;;;15.75;46.37
39435;BME280;66825;51.880;-0.518;2024-02-14T04:15:11;100044.69;;;15.75;46.20
39435;BME280;66825;51.880;-0.518;2024-02-14T04:17:36;100043.91;;;15.74;46.13
39435;BME280;66825;51.880;-0.518;2024-02-14T04:20:02;100025.25;;;15.67;46.34
39435;BME280;66825;51.880;-0.518;2024-02-14T04:22:27;100037.63;;;15.73;46.15
39435;BME280;66825;51.880;-0.518;2024-02-14T04:24:52;100042.28;;;15.73;46.24
39435;BME280;66825;51.880;-0.518;2024-02-14T04:27:18;100036.03;;;15.72;46.24
39435;BME280;66825;51.880;-0.518;2024-02-14T04:29:46;100040.66;;;15.72;46.07
39435;BME280;66825;51.880;-0.518;2024-02-14T04:32:12;100053.41;;;15.71;46.12
39435;BME280;66825;51.880;-0.518;2024-02-14T04:34:38;100050.69;;;15.71;46.27
39435;BME280;66825;51.880;-0.518;2024-02-14T04:37:05;100049.13;;;15.70;46.21
39435;BME280;66825;51.880;-0.518;2024-02-14T04:39:38;100050.22;;;15.69;46.38
39435;BME280;66825;51.880;-0.518;2024-02-14T04:42:04;100051.00;;;15.70;46.28
39435;BME280;66825;51.880;-0.518;2024-02-14T04:44:30;100050.22;;;15.69;46.19
39435;BME280;66825;51.880;-0.518;2024-02-14T04:46:56;100044.78;;;15.69;46.18
39435;BME280;66825;51.880;-0.518;2024-02-14T04:49:23;100054.81;;;15.69;46.43
39435;BME280;66825;51.880;-0.518;2024-02-14T04:51:48;100061.34;;;15.68;46.43
39435;BME280;66825;51.880;-0.518;2024-02-14T04:54:14;100051.31;;;15.68;46.23
39435;BME280;66825;51.880;-0.518;2024-02-14T04:56:41;100054.03;;;15.68;46.14
39435;BME280;66825;51.880;-0.518;2024-02-14T04:59:07;100061.34;;;15.68;46.31
39435;BME280;66825;51.880;-0.518;2024-02-14T05:01:33;100066.28;;;15.66;46.39
39435;BME280;66825;51.880;-0.518;2024-02-14T05:03:59;100067.91;;;15.67;46.35
39435;BME280;66825;51.880;-0.518;2024-02-14T05:06:24;100060.88;;;15.66;46.26
39435;BME280;66825;51.880;-0.518;2024-02-14T05:08:49;100056.53;;;15.65;46.31
39435;BME280;66825;51.880;-0.518;2024-02-14T05:11:16;100053.81;;;15.65;46.47
39435;BME280;66825;51.880;-0.518;2024-02-14T05:13:42;100056.53;;;15.65;46.26
39435;BME280;66825;51.880;-0.518;2024-02-14T05:16:08;100068.50;;;15.64;46.51
39435;BME280;66825;51.880;-0.518;2024-02-14T05:18:38;100057.63;;;15.64;46.23
39435;BME280;66825;51.880;-0.518;2024-02-14T05:21:07;100065.78;;;15.64;46.27
39435;BME280;66825;51.880;-0.518;2024-02-14T05:23:33;100067.69;;;15.63;46.39
39435;BME280;66825;51.880;-0.518;2024-02-14T05:25:58;100062.53;;;15.62;46.29
39435;BME280;66825;51.880;-0.518;2024-02-14T05:28:23;100072.31;;;15.63;46.33
39435;BME280;66825;51.880;-0.518;2024-02-14T05:30:49;100077.72;;;15.63;46.31
39435;BME280;66825;51.880;-0.518;2024-02-14T05:33:14;100070.69;;;15.62;46.39
39435;BME280;66825;51.880;-0.518;2024-02-14T05:35:39;100076.13;;;15.62;46.20
39435;BME280;66825;51.880;-0.518;2024-02-14T05:38:05;100069.91;;;15.61;46.28
39435;BME280;66825;51.880;-0.518;2024-02-14T05:40:33;100075.31;;;15.61;46.43
39435;BME280;66825;51.880;-0.518;2024-02-14T05:42:58;100076.94;;;15.62;46.37
39435;BME280;66825;51.880;-0.518;2024-02-14T05:45:23;100079.94;;;15.61;46.23
39435;BME280;66825;51.880;-0.518;2024-02-14T05:47:49;100073.72;;;15.60;46.47
39435;BME280;66825;51.880;-0.518;2024-02-14T05:50:14;100075.63;;;15.60;46.25
39435;BME280;66825;51.880;-0.518;2024-02-14T05:52:39;100075.63;;;15.60;46.17
39435;BME280;66825;51.880;-0.518;2024-02-14T05:55:05;100073.72;;;15.60;46.36
39435;BME280;66825;51.880;-0.518;2024-02-14T05:57:30;100060.44;;;15.59;46.47
39435;BME280;66825;51.880;-0.518;2024-02-14T05:59:56;100075.09;;;15.57;46.26
39435;BME280;66825;51.880;-0.518;2024-02-14T06:02:21;100065.03;;;15.58;46.27
39435;BME280;66825;51.880;-0.518;2024-02-14T06:04:46;100065.03;;;15.58;46.40
39435;BME280;66825;51.880;-0.518;2024-02-14T06:07:12;100069.69;;;15.57;46.25
39435;BME280;66825;51.880;-0.518;2024-02-14T06:09:37;100074.28;;;15.57;46.34
39435;BME280;66825;51.880;-0.518;2024-02-14T06:12:03;100076.19;;;15.56;46.34
39435;BME280;66825;51.880;-0.518;2024-02-14T06:14:29;100077.00;;;15.57;46.29
39435;BME280;66825;51.880;-0.518;2024-02-14T06:16:56;100075.41;;;15.56;46.38
39435;BME280;66825;51.880;-0.518;2024-02-14T06:19:21;100071.06;;;15.55;46.39
39435;BME280;66825;51.880;-0.518;2024-02-14T06:21:47;100080.84;;;15.56;46.33
39435;BME280;66825;51.880;-0.518;2024-02-14T06:24:12;100079.22;;;15.55;46.45
39435;BME280;66825;51.880;-0.518;2024-02-14T06:26:38;100087.38;;;15.55;46.44
39435;BME280;66825;51.880;-0.518;2024-02-14T06:29:04;100094.69;;;15.54;46.30
39435;BME280;66825;51.880;-0.518;2024-02-14T06:31:29;100091.19;;;15.54;46.25
39435;BME280;66825;51.880;-0.518;2024-02-14T06:33:54;100081.13;;;15.54;46.46
39435;BME280;66825;51.880;-0.518;2024-02-14T06:36:20;100079.50;;;15.53;46.52
39435;BME280;66825;51.880;-0.518;2024-02-14T06:38:45;100077.91;;;15.52;46.39
39435;BME280;66825;51.880;-0.518;2024-02-14T06:41:11;100076.00;;;15.53;46.31
39435;BME280;66825;51.880;-0.518;2024-02-14T06:43:37;100071.34;;;15.53;46.57
39435;BME280;66825;51.880;-0.518;2024-02-14T06:46:04;100072.47;;;15.52;46.39
39435;BME280;66825;51.880;-0.518;2024-02-14T06:48:30;100080.63;;;15.52;46.38
39435;BME280;66825;51.880;-0.518;2024-02-14T06:50:55;100067.84;;;15.53;46.30
39435;BME280;66825;51.880;-0.518;2024-02-14T06:53:22;100072.97;;;15.54;46.04
39435;BME280;66825;51.880;-0.518;2024-02-14T06:55:47;100075.41;;;15.56;45.98
39435;BME280;66825;51.880;-0.518;2024-02-14T06:58:12;100080.22;;;15.59;46.19
39435;BME280;66825;51.880;-0.518;2024-02-14T07:00:38;100091.31;;;15.63;46.26
39435;BME280;66825;51.880;-0.518;2024-02-14T07:03:05;100090.72;;;15.66;46.05
39435;BME280;66825;51.880;-0.518;2024-02-14T07:05:30;100092.56;;;15.70;46.32
39435;BME280;66825;51.880;-0.518;2024-02-14T07:07:55;100094.38;;;15.75;46.39
39435;BME280;66825;51.880;-0.518;2024-02-14T07:10:21;100085.63;;;15.78;46.50
39435;BME280;66825;51.880;-0.518;2024-02-14T07:12:46;100094.78;;;15.82;46.13
39435;BME280;66825;51.880;-0.518;2024-02-14T07:15:12;100093.16;;;15.86;46.39
39435;BME280;66825;51.880;-0.518;2024-02-14T07:17:37;100104.22;;;15.90;46.20
39435;BME280;66825;51.880;-0.518;2024-02-14T07:20:03;100099.00;;;15.94;46.30
39435;BME280;66825;51.880;-0.518;2024-02-14T07:22:29;100098.44;;;15.97;46.03
39435;BME280;66825;51.880;-0.518;2024-02-14T07:24:55;100104.88;;;16.01;46.33
39435;BME280;66825;51.880;-0.518;2024-02-14T07:27:21;100107.78;;;16.04;46.30
39435;BME280;66825;51.880;-0.518;2024-02-14T07:29:46;100108.00;;;16.08;46.34
39435;BME280;66825;51.880;-0.518;2024-02-14T07:32:12;100114.44;;;16.12;46.28
39435;BME280;66825;51.880;-0.518;2024-02-14T07:34:38;100108.44;;;16.15;46.22
39435;BME280;66825;51.880;-0.518;2024-02-14T07:37:04;100107.00;;;16.18;45.80
39435;BME280;66825;51.880;-0.518;2024-02-14T07:39:29;100106.44;;;16.21;45.93
39435;BME280;66825;51.880;-0.518;2024-02-14T07:41:55;100108.53;;;16.24;46.16
39435;BME280;66825;51.880;-0.518;2024-02-14T07:44:22;100097.88;;;16.28;46.20
39435;BME280;66825;51.880;-0.518;2024-02-14T07:46:48;100105.13;;;16.32;45.80
39435;BME280;66825;51.880;-0.518;2024-02-14T07:49:14;100117.31;;;16.35;46.05
39435;BME280;66825;51.880;-0.518;2024-02-14T07:51:39;100119.44;;;16.38;46.01
39435;BME280;66825;51.880;-0.518;2024-02-14T07:54:05;100111.50;;;16.42;45.85
39435;BME280;66825;51.880;-0.518;2024-02-14T07:56:30;100115.22;;;16.46;45.80
39435;BME280;66825;51.880;-0.518;2024-02-14T07:58:56;100130.13;;;16.48;45.93
39435;BME280;66825;51.880;-0.518;2024-02-14T08:01:21;100134.16;;;16.51;45.64
39435;BME280;66825;51.880;-0.518;2024-02-14T08:03:47;100130.03;;;16.54;45.52
39435;BME280;66825;51.880;-0.518;2024-02-14T08:06:13;100136.78;;;16.56;45.45
39435;BME280;66825;51.880;-0.518;2024-02-14T08:08:38;100130.75;;;16.59;45.61
39435;BME280;66825;51.880;-0.518;2024-02-14T08:11:03;100128.25;;;16.63;45.51
39435;BME280;66825;51.880;-0.518;2024-02-14T08:13:29;100117.84;;;16.65;45.58
39435;BME280;66825;51.880;-0.518;2024-02-14T08:15:54;100109.09;;;16.68;45.76
39435;BME280;66825;51.880;-0.518;2024-02-14T08:18:20;100108.00;;;16.69;45.30
39435;BME280;66825;51.880;-0.518;2024-02-14T08:20:45;100119.06;;;16.73;45.45
39435;BME280;66825;51.880;-0.518;2024-02-14T08:23:10;100121.19;;;16.76;45.48
39435;BME280;66825;51.880;-0.518;2024-02-14T08:25:36;100108.88;;;16.78;45.21
39435;BME280;66825;51.880;-0.518;2024-02-14T08:28:01;100098.50;;;16.80;45.34
39435;BME280;66825;51.880;-0.518;2024-02-14T08:30:27;100096.28;;;16.82;45.25
39435;BME280;66825;51.880;-0.518;2024-02-14T08:32:53;100104.34;;;16.88;45.36
39435;BME280;66825;51.880;-0.518;2024-02-14T08:35:18;100104.78;;;16.95;46.59
39435;BME280;66825;51.880;-0.518;2024-02-14T08:37:43;100109.50;;;17.03;46.42
39435;BME280;66825;51.880;-0.518;2024-02-14T08:40:09;100120.00;;;17.10;46.58
39435;BME280;66825;51.880;-0.518;2024-02-14T08:42:37;100118.47;;;17.18;46.42
39435;BME280;66825;51.880;-0.518;2024-02-14T08:45:02;100124.59;;;17.23;46.30
39435;BME280;66825;51.880;-0.518;2024-02-14T08:47:28;100115.22;;;17.29;46.06
39435;BME280;66825;51.880;-0.518;2024-02-14T08:49:54;100119.13;;;17.37;46.29
39435;BME280;66825;51.880;-0.518;2024-02-14T08:52:19;100130.69;;;17.43;46.14
39435;BME280;66825;51.880;-0.518;2024-02-14T08:54:46;100133.03;;;17.50;46.19
39435;BME280;66825;51.880;-0.518;2024-02-14T08:57:11;100124.72;;;17.55;45.85
39435;BME280;66825;51.880;-0.518;2024-02-14T08:59:37;100121.59;;;17.61;45.78
39435;BME280;66825;51.880;-0.518;2024-02-14T09:02:02;100131.53;;;17.66;46.17
39435;BME280;66825;51.880;-0.518;2024-02-14T09:04:27;100134.94;;;17.72;46.07
39435;BME280;66825;51.880;-0.518;2024-02-14T09:06:53;100031.09;;;17.05;45.99
39435;BME280;66825;51.880;-0.518;2024-02-14T09:09:18;100143.69;;;17.83;45.88
39435;BME280;66825;51.880;-0.518;2024-02-14T09:11:44;100141.66;;;17.88;45.87
39435;BME280;66825;51.880;-0.518;2024-02-14T09:14:11;100135.28;;;17.93;45.81
39435;BME280;66825;51.880;-0.518;2024-02-14T09:16:38;100139.50;;;17.99;45.98
39435;BME280;66825;51.880;-0.518;2024-02-14T09:19:04;100138.28;;;18.05;46.89
39435;BME280;66825;51.880;-0.518;2024-02-14T09:21:32;100133.50;;;18.11;45.84
39435;BME280;66825;51.880;-0.518;2024-02-14T09:23:59;100139.13;;;18.15;45.78
39435;BME280;66825;51.880;-0.518;2024-02-14T09:26:25;100128.91;;;18.20;45.79
39435;BME280;66825;51.880;-0.518;2024-02-14T09:28:51;100128.78;;;18.25;45.90
39435;BME280;66825;51.880;-0.518;2024-02-14T09:31:17;100130.84;;;18.29;45.94
39435;BME280;66825;51.880;-0.518;2024-02-14T09:33:43;100142.44;;;18.34;46.08
39435;BME280;66825;51.880;-0.518;2024-02-14T09:36:08;100057.41;;;17.78;46.30
39435;BME280;66825;51.880;-0.518;2024-02-14T09:38:34;100071.31;;;17.90;46.20
39435;BME280;66825;51.880;-0.518;2024-02-14T09:41:06;100156.31;;;18.47;46.09
39435;BME280;66825;51.880;-0.518;2024-02-14T09:43:37;100156.50;;;18.50;46.40
39435;BME280;66825;51.880;-0.518;2024-02-14T09:46:03;100159.09;;;18.55;46.02
39435;BME280;66825;51.880;-0.518;2024-02-14T09:48:29;100149.97;;;18.60;46.31
39435;BME280;66825;51.880;-0.518;2024-02-14T09:50:54;100152.56;;;18.65;45.95
39435;BME280;66825;51.880;-0.518;2024-02-14T09:53:21;100146.16;;;18.70;45.96
39435;BME280;66825;51.880;-0.518;2024-02-14T09:55:48;100136.53;;;18.72;45.87
39435;BME280;66825;51.880;-0.518;2024-02-14T09:58:14;100142.16;;;18.76;45.85
39435;BME280;66825;51.880;-0.518;2024-02-14T10:00:39;100153.25;;;18.80;45.80
39435;BME280;66825;51.880;-0.518;2024-02-14T10:03:06;100153.94;;;18.85;45.85
39435;BME280;66825;51.880;-0.518;2024-02-14T10:05:31;100160.34;;;18.89;45.90
39435;BME280;66825;51.880;-0.518;2024-02-14T10:07:57;100162.16;;;18.94;45.95
39435;BME280;66825;51.880;-0.518;2024-02-14T10:10:23;100154.16;;;18.98;46.09
39435;BME280;66825;51.880;-0.518;2024-02-14T10:12:48;100160.09;;;19.00;45.82
39435;BME280;66825;51.880;-0.518;2024-02-14T10:15:13;100159.78;;;19.01;45.82
39435;BME280;66825;51.880;-0.518;2024-02-14T10:17:39;100161.38;;;19.02;45.91
39435;BME280;66825;51.880;-0.518;2024-02-14T10:20:06;100159.16;;;19.04;45.99
39435;BME280;66825;51.880;-0.518;2024-02-14T10:22:35;100163.19;;;19.07;46.10
39435;BME280;66825;51.880;-0.518;2024-02-14T10:25:02;100169.91;;;19.10;46.08
39435;BME280;66825;51.880;-0.518;2024-02-14T10:27:27;100173.94;;;19.12;46.07
39435;BME280;66825;51.880;-0.518;2024-02-14T10:29:55;100170.41;;;19.12;45.83
39435;BME280;66825;51.880;-0.518;2024-02-14T10:32:21;100054.75;;;18.41;46.11
39435;BME280;66825;51.880;-0.518;2024-02-14T10:34:47;100163.50;;;19.14;45.91
39435;BME280;66825;51.880;-0.518;2024-02-14T10:37:13;100165.91;;;19.16;45.73
39435;BME280;66825;51.880;-0.518;2024-02-14T10:39:39;100174.09;;;19.16;45.76
39435;BME280;66825;51.880;-0.518;2024-02-14T10:42:06;100183.13;;;19.16;46.14
39435;BME280;66825;51.880;-0.518;2024-02-14T10:44:32;100173.78;;;19.17;46.10
39435;BME280;66825;51.880;-0.518;2024-02-14T10:46:57;100167.19;;;19.18;46.12
39435;BME280;66825;51.880;-0.518;2024-02-14T10:49:25;100163.69;;;19.18;46.28
39435;BME280;66825;51.880;-0.518;2024-02-14T10:51:52;100169.16;;;19.18;46.15
39435;BME280;66825;51.880;-0.518;2024-02-14T10:54:19;100185.19;;;19.19;46.28
39435;BME280;66825;51.880;-0.518;2024-02-14T10:56:45;100182.97;;;19.22;46.29
39435;BME280;66825;51.880;-0.518;2024-02-14T10:59:15;100191.34;;;19.25;46.44
39435;BME280;66825;51.880;-0.518;2024-02-14T11:01:42;100190.06;;;19.31;46.61
39435;BME280;66825;51.880;-0.518;2024-02-14T11:04:08;100192.94;;;19.35;46.36
39435;BME280;66825;51.880;-0.518;2024-02-14T11:06:46;100185.72;;;19.39;46.46
39435;BME280;66825;51.880;-0.518;2024-02-14T11:09:12;100197.31;;;19.45;46.33
39435;BME280;66825;51.880;-0.518;2024-02-14T11:11:40;100196.97;;;19.46;46.27
39435;BME280;66825;51.880;-0.518;2024-02-14T11:14:06;100198.75;;;19.51;46.13
39435;BME280;66825;51.880;-0.518;2024-02-14T11:16:31;100193.47;;;19.55;45.88
39435;BME280;66825;51.880;-0.518;2024-02-14T11:19:09;100197.47;;;19.57;46.15
39435;BME280;66825;51.880;-0.518;2024-02-14T11:21:52;100189.44;;;19.61;45.68
39435;BME280;66825;51.880;-0.518;2024-02-14T11:24:17;100192.50;;;19.59;45.54
39435;BME280;66825;51.880;-0.518;2024-02-14T11:29:13;100194.28;;;19.55;45.49
39435;BME280;66825;51.880;-0.518;2024-02-14T11:31:39;100195.72;;;19.52;45.62
39435;BME280;66825;51.880;-0.518;2024-02-14T11:34:05;100209.69;;;19.51;45.70
39435;BME280;66825;51.880;-0.518;2024-02-14T11:36:33;100201.81;;;19.49;45.61
39435;BME280;66825;51.880;-0.518;2024-02-14T11:39:03;100196.69;;;19.48;45.53
39435;BME280;66825;51.880;-0.518;2024-02-14T11:41:32;100201.66;;;19.46;45.76
39435;BME280;66825;51.880;-0.518;2024-02-14T11:44:00;100189.13;;;19.45;46.10
39435;BME280;66825;51.880;-0.518;2024-02-14T11:46:29;100202.16;;;19.48;46.28
39435;BME280;66825;51.880;-0.518;2024-02-14T11:48:54;100195.72;;;19.52;46.16
39435;BME280;66825;51.880;-0.518;2024-02-14T11:51:20;100197.19;;;19.59;46.12
39435;BME280;66825;51.880;-0.518;2024-02-14T11:53:45;100190.44;;;19.65;46.36
39435;BME280;66825;51.880;-0.518;2024-02-14T11:58:10;100187.53;;;19.70;45.85
39435;BME280;66825;51.880;-0.518;2024-02-14T12:00:40;99835.84;;;17.51;46.46
39435;BME280;66825;51.880;-0.518;2024-02-14T12:03:33;100193.00;;;19.79;47.03
39435;BME280;66825;51.880;-0.518;2024-02-14T12:06:00;100007.78;;;18.70;46.99
39435;BME280;66825;51.880;-0.518;2024-02-14T12:08:27;100187.09;;;19.86;46.83
39435;BME280;66825;51.880;-0.518;2024-02-14T12:10:53;100174.41;;;19.90;46.75
39435;BME280;66825;51.880;-0.518;2024-02-14T12:13:21;100169.09;;;19.93;46.50
39435;BME280;66825;51.880;-0.518;2024-02-14T12:15:48;99985.16;;;18.79;46.78
39435;BME280;66825;51.880;-0.518;2024-02-14T12:18:16;100163.13;;;20.00;45.99
39435;BME280;66825;51.880;-0.518;2024-02-14T12:20:42;100118.72;;;19.68;46.12
39435;BME280;66825;51.880;-0.518;2024-02-14T12:23:14;99997.06;;;18.83;46.09
39435;BME280;66825;51.880;-0.518;2024-02-14T12:25:40;100011.25;;;18.94;45.98
39435;BME280;66825;51.880;-0.518;2024-02-14T12:28:06;100171.34;;;19.91;45.99
39435;BME280;66825;51.880;-0.518;2024-02-14T12:30:46;100175.50;;;19.89;46.28
39435;BME280;66825;51.880;-0.518;2024-02-14T12:33:12;100102.81;;;19.44;46.27
39435;BME280;66825;51.880;-0.518;2024-02-14T12:35:45;100185.47;;;19.84;46.14
39435;BME280;66825;51.880;-0.518;2024-02-14T12:38:12;100167.44;;;19.75;46.00
39435;BME280;66825;51.880;-0.518;2024-02-14T12:40:39;100156.34;;;19.62;45.86